createdAt,value
2023-01-30T00:04:37.541Z,97863.06
2023-01-30T00:09:39.335Z,97864.09
2023-01-30T00:14:41.132Z,97849.00
2023-01-30T00:19:42.923Z,97855.28
2023-01-30T00:24:44.873Z,97847.44
2023-01-30T00:29:57.718Z,97833.53
2023-01-30T00:35:07.075Z,97820.78
2023-01-30T00:40:10.046Z,97824.25
2023-01-30T00:45:31.805Z,97819.69
2023-01-30T00:50:42.732Z,97819.31
2023-01-30T00:55:47.014Z,97805.56
2023-01-30T01:00:51.058Z,97805.09
2023-01-30T01:05:52.968Z,97810.63
2023-01-30T01:10:54.797Z,97803.50
2023-01-30T01:15:56.687Z,97791.69
2023-01-30T01:20:58.786Z,97771.13
2023-01-30T01:26:02.750Z,97754.50
2023-01-30T01:31:12.260Z,97743.38
2023-01-30T01:36:29.400Z,97724.75
2023-01-30T01:41:35.916Z,97693.69
2023-01-30T01:46:48.788Z,97693.09
2023-01-30T01:51:53.627Z,97685.84
2023-01-30T01:56:56.927Z,97657.09
2023-01-30T02:02:03.718Z,97634.13
2023-01-30T02:07:06.089Z,97633.44
2023-01-30T02:12:11.096Z,97633.72
2023-01-30T02:17:13.009Z,97598.63
2023-01-30T02:22:22.814Z,97596.81
2023-01-30T02:27:42.885Z,97599.00
2023-01-30T02:32:56.755Z,97604.63
2023-01-30T02:38:22.824Z,97596.44
2023-01-30T02:44:02.973Z,97602.53
2023-01-30T02:49:31.517Z,97590.88
2023-01-30T02:54:33.694Z,97591.47
2023-01-30T02:59:43.333Z,97581.59
2023-01-30T03:04:45.135Z,97565.56
2023-01-30T03:10:08.277Z,97562.59
2023-01-30T03:15:23.971Z,97555.75
2023-01-30T03:20:26.168Z,97553.56
2023-01-30T03:25:28.087Z,97523.69
2023-01-30T03:30:30.186Z,97508.63
2023-01-30T03:35:42.550Z,97516.06
2023-01-30T03:40:45.096Z,97498.09
2023-01-30T03:45:47.039Z,97482.63
2023-01-30T03:50:49.075Z,97483.25
2023-01-30T03:55:51.779Z,97474.53
2023-01-30T04:00:59.810Z,97485.34
2023-01-30T04:06:01.705Z,97459.31
2023-01-30T04:11:04.362Z,97468.84
2023-01-30T04:16:25.695Z,97444.34
2023-01-30T04:21:59.348Z,97432.97
2023-01-30T04:27:01.308Z,97433.66
2023-01-30T04:32:04.153Z,97423.44
2023-01-30T04:37:09.641Z,97408.59
2023-01-30T04:42:12.200Z,97407.56
2023-01-30T04:47:24.822Z,97411.25
2023-01-30T04:52:26.747Z,97397.91
2023-01-30T04:57:28.630Z,97389.53
2023-01-30T05:02:31.702Z,97385.47
2023-01-30T05:07:33.498Z,97372.56
2023-01-30T05:12:35.366Z,97372.44
2023-01-30T05:17:37.246Z,97359.56
2023-01-30T05:22:39.170Z,97335.75
2023-01-30T05:27:41.165Z,97327.94
2023-01-30T05:32:42.977Z,97313.72
2023-01-30T05:37:44.835Z,97293.84
2023-01-30T05:42:46.670Z,97291.16
2023-01-30T05:47:56.294Z,97283.03
2023-01-30T05:52:58.246Z,97300.81
2023-01-30T05:58:00.134Z,97286.41
2023-01-30T06:03:02.019Z,97270.94
2023-01-30T06:08:03.896Z,97273.25
2023-01-30T06:13:05.815Z,97254.16
2023-01-30T06:18:07.661Z,97259.72
2023-01-30T06:23:09.451Z,97258.78
2023-01-30T06:28:11.696Z,97248.19
2023-01-30T06:33:14.324Z,97235.56
2023-01-30T06:38:16.981Z,97236.13
2023-01-30T06:43:18.875Z,97228.22
2023-01-30T06:48:20.682Z,97241.56
2023-01-30T06:53:25.398Z,97259.34
2023-01-30T06:58:27.642Z,97270.16
2023-01-30T07:03:29.494Z,97249.97
2023-01-30T07:08:31.317Z,97238.41
2023-01-30T07:13:33.124Z,97238.84
2023-01-30T07:18:34.943Z,97247.66
2023-01-30T07:23:36.769Z,97253.06
2023-01-30T07:28:38.561Z,97237.88
2023-01-30T07:33:40.387Z,97228.75
2023-01-30T07:38:42.255Z,97216.94
2023-01-30T07:43:44.033Z,97219.91
2023-01-30T07:48:46.158Z,97225.44
2023-01-30T07:53:51.170Z,97242.31
2023-01-30T07:58:55.597Z,97225.75
2023-01-30T08:03:57.562Z,97221.03
2023-01-30T08:08:59.378Z,97221.06
2023-01-30T08:14:01.391Z,97247.41
2023-01-30T08:19:04.913Z,97245.13
2023-01-30T08:24:07.295Z,97238.34
2023-01-30T08:29:09.119Z,97225.53
2023-01-30T08:34:11.024Z,97226.69
2023-01-30T08:39:13.365Z,97231.31
2023-01-30T08:44:15.153Z,97217.50
2023-01-30T08:49:17.015Z,97223.59
2023-01-30T08:54:18.814Z,97229.66
2023-01-30T08:59:20.729Z,97215.66
2023-01-30T09:04:25.023Z,97217.16
2023-01-30T09:09:29.314Z,97203.94
2023-01-30T09:14:31.121Z,97203.66
2023-01-30T09:19:33.021Z,97198.03
2023-01-30T09:24:34.895Z,97230.25
2023-01-30T09:29:36.667Z,97222.69
2023-01-30T09:34:38.479Z,97217.56
2023-01-30T09:39:40.313Z,97204.47
2023-01-30T09:45:00.665Z,97216.19
2023-01-30T09:50:21.325Z,97223.50
2023-01-30T09:55:26.823Z,97222.91
2023-01-30T10:00:42.356Z,97230.66
2023-01-30T10:05:46.290Z,97219.34
2023-01-30T10:11:08.146Z,97221.91
2023-01-30T10:16:33.797Z,97212.16
2023-01-30T10:21:59.451Z,97203.78
2023-01-30T10:27:04.608Z,97206.16
2023-01-30T10:32:26.210Z,97196.28
2023-01-30T10:37:33.169Z,97196.16
2023-01-30T10:43:03.168Z,97180.13
2023-01-30T10:48:07.851Z,97172.75
2023-01-30T10:53:20.112Z,97183.69
2023-01-30T10:58:43.914Z,97177.19
2023-01-30T11:04:02.631Z,97189.44
2023-01-30T11:09:04.810Z,97181.63
2023-01-30T11:14:09.247Z,97189.72
2023-01-30T11:19:21.196Z,97180.53
2023-01-30T11:24:30.483Z,97181.06
2023-01-30T11:29:33.652Z,97188.47
2023-01-30T11:34:35.479Z,97181.72
2023-01-30T11:39:37.294Z,97185.91
2023-01-30T11:44:42.154Z,97187.91
2023-01-30T11:50:00.694Z,97178.88
2023-01-30T11:55:10.164Z,97178.25
2023-01-30T12:00:42.780Z,97172.47
2023-01-30T12:05:47.063Z,97168.72
2023-01-30T12:10:54.069Z,97154.94
2023-01-30T12:16:38.144Z,97156.28
2023-01-30T12:22:11.581Z,97164.38
2023-01-30T12:27:29.946Z,97154.88
2023-01-30T12:32:34.828Z,97138.25
2023-01-30T12:37:58.012Z,97129.19
2023-01-30T12:43:33.463Z,97123.47
2023-01-30T12:49:07.942Z,97126.19
2023-01-30T12:54:32.108Z,97123.88
2023-01-30T12:59:50.744Z,97098.47
2023-01-30T13:05:08.154Z,97098.47
2023-01-30T13:10:39.121Z,97092.47
2023-01-30T13:16:04.063Z,97092.59
2023-01-30T13:21:46.549Z,97124.41
2023-01-30T13:26:51.036Z,97110.38
2023-01-30T13:31:57.370Z,97127.22
2023-01-30T13:37:15.773Z,97121.84
2023-01-30T13:43:05.020Z,97106.69
2023-01-30T13:48:26.333Z,97104.66
2023-01-30T13:53:48.763Z,97121.00
2023-01-30T13:58:59.195Z,97125.97
2023-01-30T14:04:41.889Z,97111.25
2023-01-30T14:09:49.382Z,97109.47
2023-01-30T14:15:20.431Z,97116.88
2023-01-30T14:20:23.335Z,97133.03
2023-01-30T14:25:28.162Z,97119.63
2023-01-30T14:30:45.269Z,97131.41
2023-01-30T14:36:02.409Z,97133.53
2023-01-30T14:41:04.225Z,97131.34
2023-01-30T14:46:18.133Z,97146.16
2023-01-30T14:51:34.735Z,97155.06
2023-01-30T14:57:06.091Z,97141.84
2023-01-30T15:02:14.231Z,97151.19
2023-01-30T15:07:26.383Z,97141.19
2023-01-30T15:12:40.335Z,97136.72
2023-01-30T15:18:09.051Z,97145.56
2023-01-30T15:23:23.260Z,97158.91
2023-01-30T15:28:35.081Z,97176.56
2023-01-30T15:33:48.159Z,97185.78
2023-01-30T15:39:19.624Z,97184.66
2023-01-30T15:44:32.296Z,97190.34
2023-01-30T15:49:59.955Z,97195.75
2023-01-30T15:55:02.506Z,97220.50
2023-01-30T16:00:17.353Z,97219.94
2023-01-30T16:05:25.790Z,97237.50
2023-01-30T16:10:30.650Z,97244.19
2023-01-30T16:15:41.917Z,97261.22
2023-01-30T16:21:00.775Z,97274.06
2023-01-30T16:26:07.485Z,97272.72
2023-01-30T16:31:11.573Z,97296.97
2023-01-30T16:36:40.680Z,97290.06
2023-01-30T16:41:45.337Z,97273.31
2023-01-30T16:47:19.682Z,97286.94
2023-01-30T16:52:44.325Z,97298.72
2023-01-30T16:57:55.046Z,97304.38
2023-01-30T17:03:00.313Z,97311.53
2023-01-30T17:08:02.144Z,97316.69
2023-01-30T17:13:05.033Z,97326.56
2023-01-30T17:18:09.596Z,97354.94
2023-01-30T17:23:17.507Z,97344.78
2023-01-30T17:28:21.721Z,97341.97
2023-01-30T17:33:23.543Z,97363.47
2023-01-30T17:38:25.327Z,97353.19
2023-01-30T17:43:27.106Z,97377.00
2023-01-30T17:48:28.889Z,97373.88
2023-01-30T17:53:30.740Z,97388.91
2023-01-30T17:58:32.522Z,97397.56
2023-01-30T18:03:34.333Z,97394.31
2023-01-30T18:08:36.165Z,97416.22
2023-01-30T18:13:39.942Z,97404.19
2023-01-30T18:18:41.836Z,97420.84
2023-01-30T18:23:44.193Z,97437.56
2023-01-30T18:28:46.659Z,97451.13
2023-01-30T18:33:48.459Z,97471.38
2023-01-30T18:38:50.466Z,97470.56
2023-01-30T18:44:03.092Z,97475.31
2023-01-30T18:49:05.011Z,97485.59
2023-01-30T18:54:06.862Z,97491.53
2023-01-30T18:59:10.287Z,97477.06
2023-01-30T19:04:12.212Z,97500.34
2023-01-30T19:09:16.260Z,97511.56
2023-01-30T19:14:18.164Z,97514.94
2023-01-30T19:19:20.075Z,97522.66
2023-01-30T19:24:22.416Z,97532.38
2023-01-30T19:29:24.254Z,97534.28
2023-01-30T19:34:26.095Z,97564.81
2023-01-30T19:39:27.870Z,97572.13
2023-01-30T19:44:29.761Z,97576.84
2023-01-30T19:49:33.497Z,97580.53
2023-01-30T19:54:36.900Z,97599.84
2023-01-30T19:59:38.902Z,97600.78
2023-01-30T20:04:40.831Z,97626.88
2023-01-30T20:09:42.604Z,97616.88
2023-01-30T20:14:44.487Z,97634.06
2023-01-30T20:19:46.334Z,97640.09
2023-01-30T20:24:48.425Z,97637.69
2023-01-30T20:29:50.303Z,97649.22
2023-01-30T20:34:52.125Z,97647.50
2023-01-30T20:39:55.365Z,97653.22
2023-01-30T20:44:57.198Z,97649.50
2023-01-30T20:49:58.993Z,97669.97
2023-01-30T20:55:00.872Z,97663.78
2023-01-30T21:00:05.521Z,97654.59
2023-01-30T21:05:08.029Z,97662.06
2023-01-30T21:10:10.564Z,97677.88
2023-01-30T21:15:12.423Z,97694.78
2023-01-30T21:20:14.292Z,97681.56
2023-01-30T21:25:16.113Z,97691.16
2023-01-30T21:30:18.123Z,97701.19
2023-01-30T21:35:20.247Z,97709.81
2023-01-30T21:40:40.688Z,97726.13
2023-01-30T21:45:42.951Z,97750.47
2023-01-30T21:50:45.029Z,97747.13
2023-01-30T21:55:53.475Z,97755.84
2023-01-30T22:00:55.327Z,97762.88
2023-01-30T22:05:57.136Z,97749.34
2023-01-30T22:11:07.110Z,97755.63
2023-01-30T22:16:14.842Z,97748.16
2023-01-30T22:21:19.500Z,97765.81
2023-01-30T22:26:22.896Z,97788.56
2023-01-30T22:31:26.268Z,97807.38
2023-01-30T22:36:30.313Z,97798.66
2023-01-30T22:41:34.900Z,97808.47
2023-01-30T22:46:39.644Z,97809.16
2023-01-30T22:51:43.566Z,97819.53
2023-01-30T22:56:47.294Z,97830.03
2023-01-30T23:01:51.036Z,97836.91
2023-01-30T23:06:52.858Z,97833.03
2023-01-30T23:12:15.756Z,97834.44
2023-01-30T23:17:36.403Z,97836.84
2023-01-30T23:22:38.947Z,97826.97
2023-01-30T23:27:40.763Z,97820.19
2023-01-30T23:32:42.592Z,97831.84
2023-01-30T23:38:02.801Z,97828.47
2023-01-30T23:43:04.652Z,97833.25
2023-01-30T23:48:08.570Z,97833.84
2023-01-30T23:53:10.832Z,97828.00
2023-01-30T23:58:12.611Z,97815.22
